Elizabeth City, NC (27909)

2:33 PM EDT on September 21, 2014 (GMT -0400)
Forest Park | Change Station
CLOSE
Current Station
Personal Weather Station
Location: Elizabeth City, NC
Elevation: 46 ft
Nearby Weather Stations

Elev 46 ft 36.30 °N, 76.27 °W | Updated 1 second ago

Mostly Cloudy
Mostly Cloudy
78.2 °F
Feels Like 81 °F
N
2.1
Wind Variable Wind from WNW
Gusts 6.0 mph

Today
High -- | Low -- °F
--% Chance of Precip.
Yesterday
High -- | Low -- °F
Precip. -- in
6:52 AM 7:03 PM
Waning Crescent, 6% visible
Pressure 29.75 in
Visibility 10.0 miles
Clouds Few 2200 ft
Scattered Clouds 3100 ft
Heat Index 81 °F
Dew Point 71 °F
Humidity 78%
Rainfall 0.40 in
Snow Depth Not available.
UV 6 out of 12
Pollen 4.30 out of 12
Air Quality Not available.
Flu Activity Not available.
SPECI KECG 211801Z 31014KT 10SM FEW022 SCT031 26/20 A2975 RMK AO2

More Conditions Fewer Conditions

Pressure 29.75 in
Visibility 10.0 miles
Clouds Few 2200 ft
Scattered Clouds 3100 ft
Heat Index 81 °F
Dew Point 71 °F
Humidity 78%
Rainfall 0.40 in
Snow Depth Not available.
UV 6 out of 12
Pollen 4.30 out of 12
Air Quality Not available.
Flu Activity Not available.
SPECI KECG 211801Z 31014KT 10SM FEW022 SCT031 26/20 A2975 RMK AO2

More Conditions Fewer Conditions

10-Day Weather Forecast

Almanac

Astronomy

Sep. 21, 2014 Rise Set
Actual Time 6:52 AM EDT 7:03 PM EDT
Civil Twilight 6:26 AM EDT 7:28 PM EDT
Nautical Twilight 5:56 AM EDT 7:58 PM EDT
Astronomical Twilight 5:25 AM EDT 8:29 PM EDT
Moon 4:27 AM EDT 5:35 PM EDT
Length of Visible Light 13h 02m
Length of Day
12h 11m
Tomorrow will be 2m 17s shorter.
Waning Crescent, 6% of the Moon is Illuminated
Today
Waning Crescent
Sep 24
New
Oct 1
First Quarter
Oct 8
Full
Oct 15
Last Quarter

Today's Extremes

State Highs State Lows

Community

WunderPhotos

Upload Photos

1,755,212 photos uploaded!

WunderBlogs® & News

Nearby

Snow Depth

Station Depth Elevation
No new snow has been reported.

Earthquake Activity

City Distance Mag. Time & Date
No recent earthquake activity has been reported nearby.
Minimum magnitude displayed is 2.5.

Coastal Water Temperatures

Place Temperature
Oregon Inlet Marina, NC 73.9 °F
Duck Pier, NC 73.9 °F
Hatteras, NC 73.9 °F
Money Point, VA 79.0 °F
Sewells Point, VA 75.0 °F
Chesapeake Bay Bridge Tunnel, VA 75.0 °F

Nearby Weather Stations